Time;durP1;ratioP1;P1;durP2;ratioP2;P2;SDS_P1;SDS_P2;PMS_P1;PMS_P2;Temp;Humidity;BMP_temperature;BMP_pressure;BME280_temperature;BME280_humidity;BME280_pressure;Samples;Min_cycle;Max_cycle;Signal;HPM_P1;HPM_P2
2020/12/13 00:00:06;;;;;;;26.20;6.10;;;8.70;94.40;;;;;;4995188;28;20033;-76
2020/12/13 00:02:33;;;;;;;16.42;4.63;;;8.70;94.40;;;;;;4994750;28;20470;-76
2020/12/13 00:04:58;;;;;;;23.42;5.22;;;8.60;94.40;;;;;;4995003;28;20030;-76
2020/12/13 00:07:24;;;;;;;20.05;4.90;;;8.60;94.50;;;;;;4977048;28;20053;-76
2020/12/13 00:09:49;;;;;;;14.30;5.15;;;8.60;94.50;;;;;;4977682;28;20026;-76
2020/12/13 00:12:15;;;;;;;26.70;5.30;;;8.60;94.50;;;;;;4995228;28;20109;-76
2020/12/13 00:14:41;;;;;;;25.67;5.28;;;8.60;94.50;;;;;;4994460;28;20034;-76
2020/12/13 00:17:06;;;;;;;17.33;3.58;;;8.60;94.50;;;;;;4994464;28;20023;-76
2020/12/13 00:19:32;;;;;;;22.73;5.32;;;8.70;94.50;;;;;;4994075;28;20054;-76
2020/12/13 00:21:57;;;;;;;13.80;5.03;;;8.60;94.50;;;;;;4977522;28;20033;-76
2020/12/13 00:24:23;;;;;;;29.05;5.88;;;8.60;94.50;;;;;;4994121;28;20061;-76
2020/12/13 00:26:49;;;;;;;22.80;5.45;;;8.60;94.50;;;;;;4977143;28;20034;-76
2020/12/13 00:29:16;;;;;;;28.52;5.65;;;8.60;94.50;;;;;;4994596;28;20076;-76
2020/12/13 00:31:42;;;;;;;25.45;6.97;;;8.50;94.50;;;;;;4993765;28;20054;-76
2020/12/13 00:34:08;;;;;;;26.42;6.47;;;8.50;94.50;;;;;;4994718;28;20126;-76
2020/12/13 00:36:34;;;;;;;33.53;6.75;;;8.50;94.60;;;;;;4976658;28;20040;-76
2020/12/13 00:39:00;;;;;;;22.33;5.60;;;8.50;94.60;;;;;;4977316;28;20024;-76
2020/12/13 00:41:25;;;;;;;34.47;6.50;;;8.50;94.60;;;;;;4976447;28;20374;-76
2020/12/13 00:43:51;;;;;;;26.23;6.47;;;8.50;94.50;;;;;;4976423;28;20471;-76
2020/12/13 00:46:17;;;;;;;27.10;6.03;;;8.50;94.50;;;;;;4994254;28;20070;-76
2020/12/13 00:48:42;;;;;;;24.15;5.07;;;8.50;94.50;;;;;;4993937;28;20034;-76
2020/12/13 00:51:08;;;;;;;21.42;5.47;;;8.60;94.50;;;;;;4993706;28;20027;-76
2020/12/13 00:53:34;;;;;;;24.98;6.28;;;8.60;94.40;;;;;;4993197;28;20124;-76
2020/12/13 00:55:59;;;;;;;27.00;4.95;;;8.60;94.40;;;;;;4994081;28;20101;-76
2020/12/13 00:58:25;;;;;;;29.77;5.75;;;8.60;94.40;;;;;;4976182;28;20027;-77
2020/12/13 01:00:50;;;;;;;21.15;5.90;;;8.60;94.40;;;;;;4994081;28;20048;-76
2020/12/13 01:03:16;;;;;;;24.00;5.70;;;8.60;94.40;;;;;;4993709;28;20049;-76
2020/12/13 01:05:42;;;;;;;34.33;5.28;;;8.60;94.40;;;;;;4975723;28;20129;-76
2020/12/13 01:08:08;;;;;;;24.08;5.65;;;8.60;94.50;;;;;;4976338;28;20033;-76
2020/12/13 01:10:34;;;;;;;23.77;5.30;;;8.60;94.50;;;;;;4975970;28;20018;-76
2020/12/13 01:12:59;;;;;;;33.70;5.70;;;8.60;94.50;;;;;;4993460;28;20038;-75
2020/12/13 01:15:25;;;;;;;21.67;5.18;;;8.60;94.40;;;;;;4993362;28;20026;-76
2020/12/13 01:17:53;;;;;;;35.95;5.30;;;8.60;94.40;;;;;;4993583;28;20030;-75
2020/12/13 01:20:19;;;;;;;20.52;5.53;;;8.70;94.40;;;;;;4993508;28;20455;-76
2020/12/13 01:22:45;;;;;;;29.67;5.15;;;8.60;94.40;;;;;;4993177;28;20041;-76
2020/12/13 01:25:11;;;;;;;25.60;7.45;;;8.60;94.30;;;;;;4993633;28;20035;-76
2020/12/13 01:27:37;;;;;;;29.20;7.80;;;8.70;94.30;;;;;;4992892;28;20390;-76
2020/12/13 01:30:08;;;;;;;23.52;6.40;;;8.60;94.30;;;;;;4975982;28;20023;-75
2020/12/13 01:32:41;;;;;;;29.10;6.53;;;8.60;94.40;;;;;;4975267;28;20030;-76
2020/12/13 01:35:08;;;;;;;24.58;6.00;;;8.60;94.40;;;;;;4993344;28;20113;-75
2020/12/13 01:37:34;;;;;;;28.92;6.97;;;8.50;94.50;;;;;;4993210;28;20067;-76
2020/12/13 01:40:00;;;;;;;23.35;5.90;;;8.50;94.50;;;;;;4993136;28;20426;-75
2020/12/13 01:42:26;;;;;;;24.58;5.45;;;8.60;94.50;;;;;;4992709;28;20030;-75
2020/12/13 01:44:51;;;;;;;22.58;5.68;;;8.60;94.40;;;;;;4993392;28;20029;-75
2020/12/13 01:47:21;;;;;;;32.55;5.57;;;8.60;94.40;;;;;;4993375;28;20026;-75
2020/12/13 01:49:48;;;;;;;31.98;5.85;;;8.60;94.40;;;;;;4975169;28;20218;-75
2020/12/13 01:55:06;;;;;;;27.40;5.72;;;8.60;94.30;;;;;;4993117;28;20093;-76
2020/12/13 01:57:37;;;;;;;25.92;6.15;;;8.60;94.30;;;;;;4992745;28;20525;-75
2020/12/13 02:00:05;;;;;;;25.30;6.03;;;8.60;94.30;;;;;;4993121;28;20034;-75
2020/12/13 02:02:37;;;;;;;24.55;5.43;;;8.60;94.30;;;;;;4992528;28;20066;-76
2020/12/13 02:05:04;;;;;;;30.50;5.75;;;8.60;94.30;;;;;;4993235;28;20022;-76
2020/12/13 02:07:30;;;;;;;24.80;5.82;;;8.60;94.30;;;;;;4992682;28;20026;-76
2020/12/13 02:09:57;;;;;;;25.40;5.60;;;8.60;94.30;;;;;;4975255;28;20037;-77
2020/12/13 02:12:23;;;;;;;30.75;6.43;;;8.60;94.30;;;;;;4992939;28;20026;-76
2020/12/13 02:14:48;;;;;;;23.58;5.60;;;8.60;94.30;;;;;;4992813;28;20490;-76
2020/12/13 02:17:14;;;;;;;34.35;5.70;;;8.60;94.30;;;;;;4992860;28;20085;-76
2020/12/13 02:19:40;;;;;;;21.98;4.30;;;8.60;94.30;;;;;;4974928;28;20037;-76
2020/12/13 02:22:11;;;;;;;20.45;4.40;;;8.60;94.30;;;;;;4975394;28;20026;-76
2020/12/13 02:24:37;;;;;;;32.80;5.20;;;8.60;94.30;;;;;;4992404;28;20113;-76
2020/12/13 02:27:07;;;;;;;25.00;5.90;;;8.60;94.30;;;;;;4992736;28;20109;-76
2020/12/13 02:29:33;;;;;;;27.10;5.30;;;8.60;94.30;;;;;;4992468;28;20374;-76
2020/12/13 02:31:59;;;;;;;20.27;4.53;;;8.60;94.30;;;;;;4975223;28;20432;-75
2020/12/13 02:34:25;;;;;;;27.10;4.90;;;8.60;94.30;;;;;;4992747;28;20058;-76
2020/12/13 02:36:51;;;;;;;24.15;5.47;;;8.70;94.30;;;;;;4992319;28;20035;-76
2020/12/13 02:39:16;;;;;;;20.45;4.25;;;8.70;94.20;;;;;;4992855;28;20093;-75
2020/12/13 02:41:42;;;;;;;21.80;4.32;;;8.70;94.20;;;;;;4974712;28;20121;-75
2020/12/13 02:44:08;;;;;;;22.50;5.03;;;8.70;94.20;;;;;;4975217;28;20031;-76
2020/12/13 02:46:33;;;;;;;28.02;5.32;;;8.70;94.20;;;;;;4992320;28;20035;-78
2020/12/13 02:48:59;;;;;;;24.10;4.55;;;8.70;94.10;;;;;;4975224;28;20019;-77
2020/12/13 02:51:25;;;;;;;20.40;4.35;;;8.70;94.10;;;;;;4992177;28;20023;-77
2020/12/13 02:53:50;;;;;;;24.85;3.65;;;8.70;94.10;;;;;;4993590;28;20180;-77
2020/12/13 02:56:16;;;;;;;23.90;4.65;;;8.70;94.10;;;;;;4979015;28;20019;-77
2020/12/13 02:58:42;;;;;;;18.52;4.18;;;8.70;94.10;;;;;;4978519;28;20022;-77
2020/12/13 03:01:10;;;;;;;24.27;5.00;;;8.70;94.20;;;;;;4996227;28;20033;-76
2020/12/13 03:03:35;;;;;;;34.65;5.15;;;8.70;94.20;;;;;;4995647;28;20121;-77
2020/12/13 03:06:01;;;;;;;25.67;4.25;;;8.70;94.20;;;;;;4996314;28;20435;-77
2020/12/13 03:08:27;;;;;;;25.55;5.00;;;8.70;94.20;;;;;;4996152;28;20072;-76
2020/12/13 03:10:52;;;;;;;27.48;4.22;;;8.80;94.10;;;;;;4995648;28;20030;-77
2020/12/13 03:13:18;;;;;;;23.80;4.53;;;8.80;94.10;;;;;;4995783;28;20394;-76
2020/12/13 03:15:43;;;;;;;23.90;5.15;;;8.80;94.10;;;;;;4995471;28;20026;-77
2020/12/13 03:18:09;;;;;;;30.73;5.60;;;8.80;94.10;;;;;;4995634;28;20026;-77
2020/12/13 03:20:35;;;;;;;22.70;4.90;;;8.80;94.00;;;;;;4995067;28;20549;-78
2020/12/13 03:23:01;;;;;;;28.15;5.63;;;8.80;94.00;;;;;;4995803;28;20046;-77
2020/12/13 03:25:26;;;;;;;33.58;5.13;;;8.80;94.00;;;;;;4995463;28;20022;-77
2020/12/13 03:27:52;;;;;;;27.85;4.78;;;8.80;94.00;;;;;;4977947;28;20378;-77
2020/12/13 03:30:17;;;;;;;35.10;5.35;;;8.80;94.00;;;;;;4978247;28;20462;-77
2020/12/13 03:32:43;;;;;;;29.52;5.53;;;8.90;94.00;;;;;;4995106;28;20053;-77
2020/12/13 03:35:09;;;;;;;31.55;5.30;;;8.80;94.00;;;;;;4995708;28;20067;-77
2020/12/13 03:37:34;;;;;;;27.75;5.15;;;8.80;94.00;;;;;;4977997;28;20488;-88
2020/12/13 03:40:00;;;;;;;38.67;5.25;;;8.80;94.20;;;;;;4995543;28;20030;-76
2020/12/13 03:42:26;;;;;;;28.95;5.72;;;8.90;94.00;;;;;;4995230;28;20094;-77
2020/12/13 03:44:51;;;;;;;32.60;4.72;;;8.90;93.90;;;;;;4977518;28;20019;-77
2020/12/13 03:47:17;;;;;;;26.88;4.63;;;8.90;93.90;;;;;;4995424;28;20031;-76
2020/12/13 03:49:42;;;;;;;32.22;5.70;;;8.90;93.90;;;;;;4994979;28;20478;-77
2020/12/13 03:52:08;;;;;;;25.98;4.70;;;8.90;93.90;;;;;;4995084;28;20455;-77
2020/12/13 03:54:34;;;;;;;31.80;5.40;;;8.80;93.90;;;;;;4995402;28;20109;-77
2020/12/13 03:56:59;;;;;;;26.63;5.28;;;8.90;93.90;;;;;;4994945;28;20112;-77
2020/12/13 03:59:25;;;;;;;31.90;5.13;;;8.90;93.90;;;;;;4977553;28;20049;-77
2020/12/13 04:01:50;;;;;;;38.63;6.22;;;8.80;93.80;;;;;;4994714;28;20033;-76
2020/12/13 04:04:16;;;;;;;31.55;5.45;;;8.90;93.90;;;;;;4977567;28;20065;-77
2020/12/13 04:06:42;;;;;;;22.15;4.85;;;8.90;93.80;;;;;;4994041;28;20455;-77
2020/12/13 04:09:07;;;;;;;29.55;5.18;;;8.90;93.80;;;;;;4995320;28;20036;-77
2020/12/13 04:11:33;;;;;;;34.03;5.93;;;8.90;93.80;;;;;;4995158;28;20036;-76
2020/12/13 04:13:58;;;;;;;38.00;6.15;;;8.90;93.80;;;;;;4994647;28;20336;-77
2020/12/13 04:16:24;;;;;;;23.95;5.40;;;8.90;93.80;;;;;;4994894;28;20063;-76
2020/12/13 04:18:50;;;;;;;32.95;4.97;;;8.90;93.80;;;;;;4977018;28;20030;-77
2020/12/13 04:21:15;;;;;;;20.48;5.45;;;8.90;93.80;;;;;;4977247;28;20070;-77
2020/12/13 04:23:41;;;;;;;25.38;4.65;;;9.00;93.80;;;;;;4994065;28;20510;-77
2020/12/13 04:26:06;;;;;;;28.23;4.97;;;8.90;93.80;;;;;;4994523;28;20034;-77
2020/12/13 04:28:32;;;;;;;18.38;4.07;;;8.90;93.80;;;;;;4994646;28;20058;-77
2020/12/13 04:30:57;;;;;;;28.83;5.22;;;8.90;93.80;;;;;;4994109;28;20450;-78
2020/12/13 04:33:23;;;;;;;33.50;5.75;;;8.90;93.90;;;;;;4977382;28;20030;-77
2020/12/13 04:35:49;;;;;;;25.67;5.20;;;8.90;93.90;;;;;;4976568;28;20026;-76
2020/12/13 04:38:14;;;;;;;23.90;4.75;;;8.90;93.90;;;;;;4994260;28;20022;-77
2020/12/13 04:40:40;;;;;;;27.60;5.30;;;8.90;93.90;;;;;;4976684;28;20025;-85
2020/12/13 04:43:06;;;;;;;35.20;5.18;;;8.90;93.90;;;;;;4976893;28;20018;-77
2020/12/13 04:45:33;;;;;;;39.42;4.90;;;8.90;93.90;;;;;;4994195;28;20363;-77
2020/12/13 04:48:05;;;;;;;29.10;4.65;;;9.00;93.90;;;;;;4993895;28;20031;-77
2020/12/13 04:50:33;;;;;;;26.55;4.03;;;9.00;93.90;;;;;;4994011;28;20375;-76
2020/12/13 04:53:08;;;;;;;27.40;5.15;;;9.00;93.90;;;;;;4993814;28;20125;-77
2020/12/13 04:55:51;;;;;;;26.65;6.63;;;9.00;93.90;;;;;;4994296;28;20046;-77
2020/12/13 04:58:19;;;;;;;22.30;5.50;;;9.00;93.90;;;;;;4994297;28;20065;-77
2020/12/13 05:00:57;;;;;;;28.25;5.47;;;9.00;93.90;;;;;;4992261;28;20026;-77
2020/12/13 05:03:24;;;;;;;21.50;5.03;;;9.00;93.90;;;;;;4976525;28;20034;-77
2020/12/13 05:05:50;;;;;;;25.40;5.07;;;9.00;94.00;;;;;;4993572;28;20046;-77
2020/12/13 05:08:16;;;;;;;22.85;5.68;;;9.00;94.00;;;;;;4976446;28;20018;-77
2020/12/13 05:10:42;;;;;;;29.05;4.80;;;9.00;94.00;;;;;;4993405;28;20037;-88
2020/12/13 05:13:09;;;;;;;31.20;6.00;;;9.00;94.00;;;;;;4976333;28;20378;-77
2020/12/13 05:15:35;;;;;;;32.33;5.75;;;9.00;93.90;;;;;;4993767;28;20464;-77
2020/12/13 05:18:01;;;;;;;23.95;6.07;;;9.00;94.00;;;;;;4992434;28;20026;-76
2020/12/13 05:20:27;;;;;;;23.60;5.10;;;9.10;94.00;;;;;;4976267;28;20029;-77
2020/12/13 05:23:01;;;;;;;18.80;4.35;;;9.10;94.00;;;;;;4975737;28;20022;-77
2020/12/13 05:25:33;;;;;;;21.67;4.78;;;9.10;93.90;;;;;;4976233;28;20450;-76
2020/12/13 05:28:01;;;;;;;24.08;4.97;;;9.10;93.90;;;;;;4993040;28;20056;-76
2020/12/13 05:30:35;;;;;;;25.50;5.68;;;9.10;93.90;;;;;;4976045;28;20076;-77
2020/12/13 05:33:08;;;;;;;26.15;5.05;;;9.20;93.90;;;;;;4993002;28;20026;-77
2020/12/13 05:35:33;;;;;;;25.38;5.30;;;9.20;93.90;;;;;;4993427;28;20033;-77
2020/12/13 05:38:07;;;;;;;29.58;6.13;;;9.20;93.90;;;;;;4975545;28;20026;-77
2020/12/13 05:40:35;;;;;;;34.13;5.90;;;9.20;93.90;;;;;;4976131;28;20030;-76
2020/12/13 05:43:07;;;;;;;25.88;6.53;;;9.20;93.90;;;;;;4992792;28;20037;-76
2020/12/13 05:51:03;;;;;;;26.05;5.13;;;9.20;94.00;;;;;;4992591;28;20074;-77
2020/12/13 05:53:29;;;;;;;23.17;5.70;;;9.20;94.00;;;;;;4972340;28;20051;-76
2020/12/13 05:55:57;;;;;;;22.42;5.30;;;9.10;94.00;;;;;;4973383;28;20313;-77
2020/12/13 05:58:26;;;;;;;20.90;4.45;;;9.20;94.00;;;;;;4973968;28;20097;-76
2020/12/13 06:00:57;;;;;;;20.52;5.68;;;9.20;94.00;;;;;;4988205;28;20526;-77
2020/12/13 06:03:34;;;;;;;33.90;5.97;;;9.20;94.00;;;;;;4973745;28;20114;-76
2020/12/13 06:06:07;;;;;;;27.23;7.30;;;9.20;94.00;;;;;;4973248;28;20050;-77
2020/12/13 06:09:02;;;;;;;26.67;5.60;;;9.20;94.00;;;;;;4973666;28;20038;-77
2020/12/13 06:11:48;;;;;;;21.40;5.38;;;9.20;94.00;;;;;;4973928;28;20023;-76
2020/12/13 06:14:22;;;;;;;27.83;5.32;;;9.20;94.00;;;;;;4988598;28;20027;-76
2020/12/13 06:16:49;;;;;;;20.77;6.63;;;9.20;94.10;;;;;;4973254;28;20027;-78
2020/12/13 06:19:23;;;;;;;15.38;6.18;;;9.20;94.10;;;;;;4972283;28;20387;-77
2020/12/13 06:21:49;;;;;;;28.13;6.22;;;9.20;94.00;;;;;;4973116;28;20018;-77
2020/12/13 06:24:15;;;;;;;24.92;5.43;;;9.30;94.10;;;;;;4973305;28;20038;-76
2020/12/13 06:26:41;;;;;;;22.13;5.47;;;9.30;94.10;;;;;;4973780;28;20031;-77
2020/12/13 06:29:07;;;;;;;28.65;5.63;;;9.30;94.00;;;;;;4975246;28;20180;-76
2020/12/13 06:31:35;;;;;;;25.70;5.32;;;9.30;94.00;;;;;;4977572;28;20101;-77
2020/12/13 06:34:01;;;;;;;26.20;7.03;;;9.30;94.00;;;;;;4976862;28;20038;-77
2020/12/13 06:36:26;;;;;;;15.90;4.70;;;9.30;94.00;;;;;;4977517;28;20030;-77
2020/12/13 06:38:54;;;;;;;26.17;5.85;;;9.30;94.00;;;;;;4977227;28;20542;-77
2020/12/13 06:41:26;;;;;;;19.70;6.15;;;9.30;94.00;;;;;;4975996;28;20441;-77
2020/12/13 06:43:56;;;;;;;21.30;6.28;;;9.30;94.00;;;;;;4976767;28;20066;-77
2020/12/13 06:46:24;;;;;;;18.90;4.93;;;9.30;94.00;;;;;;4992197;28;20030;-77
2020/12/13 06:48:50;;;;;;;31.85;7.20;;;9.30;94.00;;;;;;4976696;28;20027;-79
2020/12/13 06:51:30;;;;;;;23.60;6.78;;;9.30;94.00;;;;;;4977152;28;20027;-74
2020/12/13 06:53:57;;;;;;;28.00;7.15;;;9.30;94.10;;;;;;4976743;28;20046;-76
2020/12/13 06:56:23;;;;;;;25.25;6.05;;;9.30;94.10;;;;;;4992011;28;20118;-76
2020/12/13 06:59:01;;;;;;;23.40;6.47;;;9.30;94.10;;;;;;4976962;28;20105;-76
2020/12/13 07:01:32;;;;;;;25.02;7.57;;;9.30;94.20;;;;;;4991846;28;20033;-76
2020/12/13 07:04:18;;;;;;;30.38;8.05;;;9.30;94.10;;;;;;4976258;28;20030;-76
2020/12/13 07:06:44;;;;;;;25.25;6.25;;;9.30;94.20;;;;;;4991638;28;20202;-76
2020/12/13 07:09:13;;;;;;;21.35;5.80;;;9.30;94.20;;;;;;4991215;28;20212;-76
2020/12/13 07:11:41;;;;;;;30.05;6.68;;;9.30;94.20;;;;;;4976739;28;20439;-76
2020/12/13 07:14:10;;;;;;;36.08;7.78;;;9.30;94.20;;;;;;4990984;28;20027;-76
2020/12/13 07:16:40;;;;;;;25.17;6.63;;;9.30;94.20;;;;;;4975174;28;20022;-76
2020/12/13 07:19:10;;;;;;;21.95;6.47;;;9.30;94.10;;;;;;4991039;28;20035;-76
2020/12/13 07:21:37;;;;;;;26.52;5.57;;;9.30;94.10;;;;;;4976683;28;20085;-76
2020/12/13 07:24:04;;;;;;;32.65;6.95;;;9.30;94.10;;;;;;4975964;28;20083;-76
2020/12/13 07:26:34;;;;;;;26.65;6.40;;;9.40;94.20;;;;;;4991371;28;20069;-76
2020/12/13 07:29:03;;;;;;;29.63;5.33;;;9.30;94.10;;;;;;4975725;28;20046;-76
2020/12/13 07:31:35;;;;;;;20.67;6.00;;;9.40;94.20;;;;;;4975033;28;20023;-75
2020/12/13 07:34:02;;;;;;;21.75;5.65;;;9.40;94.10;;;;;;4990811;28;20026;-76
2020/12/13 07:36:28;;;;;;;22.48;5.63;;;9.40;94.20;;;;;;4974896;28;20462;-75
2020/12/13 07:38:54;;;;;;;21.83;5.05;;;9.30;94.10;;;;;;4975896;28;20055;-77
2020/12/13 07:41:21;;;;;;;25.27;6.13;;;9.40;94.20;;;;;;4975223;28;20057;-76
2020/12/13 07:43:54;;;;;;;21.83;6.65;;;9.40;94.10;;;;;;4976047;28;20110;-76
2020/12/13 07:46:20;;;;;;;27.05;5.95;;;9.40;94.20;;;;;;4976338;28;20026;-76
2020/12/13 07:48:46;;;;;;;20.77;6.80;;;9.40;94.10;;;;;;4975846;28;20034;-77
2020/12/13 07:51:11;;;;;;;28.83;6.28;;;9.40;94.20;;;;;;4974136;28;20077;-76
2020/12/13 07:53:37;;;;;;;17.92;5.30;;;9.40;94.10;;;;;;4993795;28;20490;-76
2020/12/13 07:56:03;;;;;;;16.95;5.22;;;9.40;94.20;;;;;;4994907;28;20485;-76
2020/12/13 07:58:28;;;;;;;17.58;5.50;;;9.40;94.10;;;;;;4994910;28;20390;-76
2020/12/13 08:01:09;;;;;;;28.65;7.25;;;9.40;94.10;;;;;;4994886;28;20035;-88
2020/12/13 08:03:46;;;;;;;18.80;5.28;;;9.40;94.10;;;;;;4995260;28;20065;-75
2020/12/13 08:06:15;;;;;;;19.42;4.88;;;9.40;94.10;;;;;;4994682;28;20156;-77
2020/12/13 08:08:44;;;;;;;22.50;5.50;;;9.40;94.20;;;;;;4995220;28;20529;-76
2020/12/13 08:11:11;;;;;;;34.08;6.63;;;9.40;94.10;;;;;;4994237;28;20033;-77
2020/12/13 08:13:48;;;;;;;25.80;6.45;;;9.40;94.10;;;;;;4977812;28;20390;-76
2020/12/13 08:16:15;;;;;;;31.38;7.32;;;9.40;94.10;;;;;;4994552;28;20380;-76
2020/12/13 08:18:52;;;;;;;23.05;6.97;;;9.40;94.10;;;;;;4994912;28;20026;-77
2020/12/13 08:21:31;;;;;;;26.60;6.05;;;9.50;94.20;;;;;;4994135;28;20399;-75
2020/12/13 08:23:57;;;;;;;22.88;6.18;;;9.40;94.20;;;;;;4976707;28;20071;-76
2020/12/13 08:26:25;;;;;;;20.23;5.65;;;9.40;94.20;;;;;;4977273;28;20023;-76
2020/12/13 08:28:52;;;;;;;18.88;5.65;;;9.40;94.20;;;;;;4977209;28;20022;-75
2020/12/13 08:31:23;;;;;;;20.20;5.97;;;9.40;94.20;;;;;;4976461;28;20029;-75
2020/12/13 08:33:48;;;;;;;25.27;6.90;;;9.40;94.20;;;;;;4994737;28;20111;-75
2020/12/13 08:36:21;;;;;;;24.05;6.32;;;9.40;94.20;;;;;;4993799;28;20057;-75
2020/12/13 08:39:08;;;;;;;19.52;6.20;;;9.40;94.10;;;;;;4976928;28;20532;-75
2020/12/13 08:41:34;;;;;;;22.17;7.68;;;9.40;94.10;;;;;;4976910;28;20537;-75
2020/12/13 08:44:00;;;;;;;17.90;6.25;;;9.40;94.10;;;;;;4993794;28;20033;-76
2020/12/13 08:46:44;;;;;;;13.80;5.60;;;9.40;94.10;;;;;;4994326;28;20058;-75
2020/12/13 08:49:10;;;;;;;24.13;5.00;;;9.50;94.10;;;;;;4976152;28;20497;-76
2020/12/13 08:51:35;;;;;;;19.35;5.75;;;9.40;94.10;;;;;;4994018;28;20038;-76
2020/12/13 08:54:05;;;;;;;15.50;4.40;;;9.50;94.10;;;;;;4993832;28;20053;-76
2020/12/13 08:56:38;;;;;;;20.45;5.60;;;9.50;94.10;;;;;;4976826;28;20022;-76
2020/12/13 08:59:07;;;;;;;11.48;4.80;;;9.50;94.10;;;;;;4993284;28;20029;-76
2020/12/13 09:01:38;;;;;;;16.45;5.25;;;9.50;94.10;;;;;;4976466;28;20022;-76
2020/12/13 09:04:18;;;;;;;11.32;5.20;;;9.50;94.10;;;;;;4976047;28;20026;-76
2020/12/13 09:06:56;;;;;;;12.93;4.90;;;9.50;94.00;;;;;;4993663;28;20027;-76
2020/12/13 09:09:21;;;;;;;22.02;5.90;;;9.50;94.10;;;;;;4993513;28;20171;-76
2020/12/13 09:11:47;;;;;;;21.80;5.95;;;9.50;94.10;;;;;;4993766;28;20101;-75
2020/12/13 09:14:31;;;;;;;17.77;6.18;;;9.50;94.10;;;;;;4993211;28;20022;-77
2020/12/13 09:16:57;;;;;;;17.95;5.03;;;9.50;94.00;;;;;;4976021;28;20025;-75
2020/12/13 09:19:23;;;;;;;24.25;5.13;;;9.50;94.00;;;;;;4993200;28;20030;-75
2020/12/13 09:21:57;;;;;;;14.98;4.20;;;9.50;94.00;;;;;;4993623;28;20462;-76
2020/12/13 09:24:26;;;;;;;13.75;4.22;;;9.40;94.00;;;;;;4975274;28;20030;-76
2020/12/13 09:27:06;;;;;;;13.73;5.22;;;9.40;94.00;;;;;;4993525;28;20034;-77
2020/12/13 09:29:34;;;;;;;12.43;4.15;;;9.50;94.10;;;;;;4975971;28;20420;-76
2020/12/13 09:32:00;;;;;;;18.77;5.50;;;9.40;94.00;;;;;;4976015;28;20180;-76
2020/12/13 09:34:26;;;;;;;14.63;5.28;;;9.40;94.00;;;;;;4992960;28;20478;-76
2020/12/13 09:36:52;;;;;;;19.65;5.50;;;9.40;94.10;;;;;;4975890;28;20502;-77
2020/12/13 09:39:18;;;;;;;13.52;4.90;;;9.40;94.10;;;;;;4975523;28;20030;-76
2020/12/13 09:41:44;;;;;;;19.77;6.30;;;9.40;94.10;;;;;;4975639;28;20034;-76
2020/12/13 09:44:09;;;;;;;14.77;4.97;;;9.40;94.10;;;;;;4992682;28;20022;-76
2020/12/13 09:46:35;;;;;;;14.80;4.90;;;9.40;94.10;;;;;;4975695;28;20161;-76
2020/12/13 09:49:01;;;;;;;16.88;5.43;;;9.40;94.10;;;;;;4993235;28;20459;-75
2020/12/13 09:51:27;;;;;;;14.02;4.78;;;9.50;94.10;;;;;;4992932;28;20026;-76
2020/12/13 09:53:52;;;;;;;14.80;4.43;;;9.50;94.10;;;;;;4992680;28;20137;-75
2020/12/13 09:56:18;;;;;;;12.43;3.40;;;9.50;94.00;;;;;;4975257;28;20022;-76
2020/12/13 09:58:45;;;;;;;15.88;5.40;;;9.50;94.00;;;;;;4993470;28;20494;-75
2020/12/13 10:01:12;;;;;;;17.48;5.85;;;9.50;94.00;;;;;;4992771;28;20541;-77
2020/12/13 10:03:40;;;;;;;16.42;5.85;;;9.50;94.00;;;;;;4992316;28;20026;-75
2020/12/13 10:09:07;;;;;;;17.08;6.03;;;9.60;93.90;;;;;;4992899;28;20470;-75
2020/12/13 10:11:35;;;;;;;18.40;6.22;;;9.50;93.80;;;;;;4975857;28;20117;-75
2020/12/13 10:14:01;;;;;;;23.90;7.35;;;9.50;93.90;;;;;;4975669;28;20033;-75
2020/12/13 10:16:28;;;;;;;29.35;8.38;;;9.50;93.90;;;;;;4992539;28;20027;-75
2020/12/13 10:18:54;;;;;;;22.88;8.02;;;9.50;93.90;;;;;;4992824;28;20097;-75
2020/12/13 10:21:24;;;;;;;23.27;9.38;;;9.50;93.90;;;;;;4992382;28;20121;-75
2020/12/13 10:23:50;;;;;;;24.67;9.38;;;9.50;93.80;;;;;;4992744;28;20058;-75
2020/12/13 10:26:16;;;;;;;27.63;10.40;;;9.50;93.90;;;;;;4974934;28;20030;-75
2020/12/13 10:28:42;;;;;;;30.02;8.82;;;9.50;93.90;;;;;;4975257;28;20259;-76
2020/12/13 10:31:10;;;;;;;16.48;6.88;;;9.50;93.90;;;;;;4992236;28;20382;-76
2020/12/13 10:33:40;;;;;;;27.15;10.65;;;9.50;93.80;;;;;;4975179;28;20031;-76
2020/12/13 10:36:11;;;;;;;29.75;9.43;;;9.50;93.80;;;;;;4992499;28;20053;-86
2020/12/13 10:38:37;;;;;;;33.13;10.82;;;9.50;93.80;;;;;;4992675;28;20030;-76
2020/12/13 10:41:08;;;;;;;27.73;9.20;;;9.50;93.70;;;;;;4975238;28;20030;-75
2020/12/13 10:43:34;;;;;;;31.73;12.20;;;9.50;93.70;;;;;;4975062;28;20027;-75
2020/12/13 10:46:05;;;;;;;26.10;9.10;;;9.50;93.70;;;;;;4992581;28;20037;-76
2020/12/13 10:48:31;;;;;;;28.80;9.07;;;9.50;93.80;;;;;;4974739;28;20022;-75
2020/12/13 10:50:57;;;;;;;22.40;7.75;;;9.50;93.70;;;;;;4992793;28;20289;-75
2020/12/13 10:53:23;;;;;;;18.42;6.90;;;9.60;93.70;;;;;;4970886;28;20089;-75
2020/12/13 10:55:49;;;;;;;26.67;8.40;;;9.60;93.70;;;;;;4973066;28;20054;-75
2020/12/13 10:58:15;;;;;;;25.10;8.98;;;9.60;93.60;;;;;;4987534;28;20090;-77
2020/12/13 11:00:40;;;;;;;23.85;6.47;;;9.60;93.60;;;;;;4973175;28;20109;-74
2020/12/13 11:03:06;;;;;;;20.48;6.97;;;9.70;93.60;;;;;;4987823;28;20467;-75
2020/12/13 11:05:32;;;;;;;15.60;6.07;;;9.70;93.60;;;;;;4971287;28;20049;-74
2020/12/13 11:07:57;;;;;;;19.15;7.70;;;9.80;93.50;;;;;;4973025;28;20102;-74
2020/12/13 11:10:23;;;;;;;13.23;5.47;;;9.80;93.50;;;;;;4972240;28;20073;-78
2020/12/13 11:12:49;;;;;;;18.45;6.25;;;9.80;93.50;;;;;;4972904;28;20483;-75
2020/12/13 11:15:14;;;;;;;17.63;5.70;;;9.80;93.40;;;;;;4973220;28;20058;-75
2020/12/13 11:17:40;;;;;;;19.63;5.70;;;9.90;93.40;;;;;;4976733;28;20460;-75
2020/12/13 11:20:05;;;;;;;22.33;7.00;;;9.90;93.30;;;;;;4976336;28;20038;-74
2020/12/13 11:22:31;;;;;;;28.50;7.50;;;10.00;93.30;;;;;;4990716;28;20023;-75
2020/12/13 11:24:57;;;;;;;16.42;6.78;;;9.90;93.30;;;;;;4976331;28;20034;-75
2020/12/13 11:27:23;;;;;;;20.33;6.63;;;9.90;93.30;;;;;;4975898;28;20375;-75
2020/12/13 11:29:48;;;;;;;16.80;5.28;;;10.00;93.30;;;;;;4976499;28;20372;-75
2020/12/13 11:32:14;;;;;;;13.73;5.80;;;9.90;93.30;;;;;;4990700;28;20067;-75
2020/12/13 11:34:40;;;;;;;16.40;4.88;;;10.00;93.30;;;;;;4976076;28;20037;-75
2020/12/13 11:37:06;;;;;;;11.60;4.38;;;10.00;93.30;;;;;;4976091;28;20046;-74
2020/12/13 11:39:32;;;;;;;17.70;5.88;;;10.10;93.20;;;;;;4990553;28;20501;-76
2020/12/13 11:41:59;;;;;;;14.70;5.05;;;10.00;93.20;;;;;;4976200;28;20023;-76
2020/12/13 11:44:25;;;;;;;14.38;5.25;;;10.10;93.20;;;;;;4990360;28;20023;-76
2020/12/13 11:46:51;;;;;;;12.20;5.15;;;10.10;93.20;;;;;;4990713;28;20482;-75
2020/12/13 11:49:17;;;;;;;10.27;4.30;;;10.10;93.20;;;;;;4975568;28;20065;-72
2020/12/13 11:51:43;;;;;;;10.10;4.43;;;10.10;93.20;;;;;;4987431;28;20027;-73
2020/12/13 11:54:09;;;;;;;10.10;4.15;;;10.10;93.20;;;;;;4992518;28;20057;-73
2020/12/13 11:56:35;;;;;;;7.63;4.05;;;10.10;93.10;;;;;;4992489;28;20027;-73
2020/12/13 11:59:01;;;;;;;10.75;3.30;;;10.10;93.10;;;;;;4975239;28;20118;-74
2020/12/13 12:01:27;;;;;;;11.48;4.32;;;10.10;93.10;;;;;;4992204;28;20075;-73
2020/12/13 12:03:53;;;;;;;9.18;4.68;;;10.00;93.00;;;;;;4991950;28;20093;-73
2020/12/13 12:06:18;;;;;;;8.15;4.13;;;9.90;93.00;;;;;;4992016;28;20385;-73
2020/12/13 12:08:45;;;;;;;9.30;3.83;;;9.90;93.00;;;;;;4992695;28;20030;-73
2020/12/13 12:11:17;;;;;;;11.23;4.32;;;9.90;93.00;;;;;;4992590;28;20088;-74
2020/12/13 12:13:44;;;;;;;11.50;4.15;;;9.90;93.00;;;;;;4992300;28;20126;-73
2020/12/13 12:16:10;;;;;;;10.70;3.28;;;9.90;93.10;;;;;;4991951;28;20026;-73
2020/12/13 12:18:35;;;;;;;9.18;3.42;;;9.80;93.10;;;;;;4991468;28;20493;-73
2020/12/13 12:21:12;;;;;;;7.13;2.90;;;9.80;93.10;;;;;;4992286;28;20061;-75
2020/12/13 12:23:39;;;;;;;6.80;2.83;;;9.90;93.10;;;;;;4991665;28;20037;-73
2020/12/13 12:26:05;;;;;;;7.03;3.05;;;9.80;92.90;;;;;;4991756;28;20109;-73
2020/12/13 12:28:30;;;;;;;4.25;2.05;;;9.80;92.90;;;;;;4991855;28;20109;-74
2020/12/13 12:30:56;;;;;;;6.65;2.50;;;9.80;93.00;;;;;;4991688;28;20031;-72
2020/12/13 12:33:21;;;;;;;6.32;3.25;;;9.80;92.90;;;;;;4991350;28;20050;-73
2020/12/13 12:35:47;;;;;;;9.00;2.88;;;9.80;92.90;;;;;;4991896;28;20034;-72
2020/12/13 12:38:13;;;;;;;7.93;2.50;;;9.80;92.90;;;;;;4991680;28;20471;-72
2020/12/13 12:40:39;;;;;;;7.38;2.17;;;9.90;92.90;;;;;;4990609;28;20032;-73
2020/12/13 12:43:04;;;;;;;6.65;2.33;;;9.80;92.90;;;;;;4991601;28;20487;-73
2020/12/13 12:45:30;;;;;;;6.13;2.40;;;9.80;92.90;;;;;;4990577;28;20438;-73
2020/12/13 12:47:56;;;;;;;7.15;1.98;;;9.80;93.00;;;;;;4974234;28;20093;-74
2020/12/13 12:50:22;;;;;;;7.68;2.75;;;9.80;93.10;;;;;;4991250;28;20057;-73
2020/12/13 12:52:47;;;;;;;4.43;1.98;;;9.70;93.10;;;;;;4991351;28;20038;-74
2020/12/13 12:55:13;;;;;;;5.72;2.63;;;9.70;93.10;;;;;;4990899;28;20084;-74
2020/12/13 12:57:39;;;;;;;4.13;2.10;;;9.70;93.10;;;;;;4989147;28;20077;-75
2020/12/13 13:02:33;;;;;;;4.63;2.17;;;9.80;93.10;;;;;;4990413;28;20062;-76